Time;durP1;ratioP1;P1;durP2;ratioP2;P2;SDS_P1;SDS_P2;PMS_P1;PMS_P2;Temp;Humidity;BMP_temperature;BMP_pressure;BME280_temperature;BME280_humidity;BME280_pressure;Samples;Min_cycle;Max_cycle;Signal;HPM_P1;HPM_P2
2021/05/16 00:00:43;;;;;;;;;;;19.40;64.40;;;;;;5050983;28;1056;-65
2021/05/16 00:03:08;;;;;;;;;;;19.40;64.40;;;;;;5051565;28;1157;-65
2021/05/16 00:05:35;;;;;;;;;;;19.40;64.40;;;;;;5050217;28;1043;-65
2021/05/16 00:08:00;;;;;;;;;;;19.40;64.40;;;;;;5072238;22;2035;-71
2021/05/16 00:10:25;;;;;;;;;;;19.40;64.40;;;;;;5051633;28;1386;-71
2021/05/16 00:12:51;;;;;;;;;;;19.40;64.40;;;;;;5052075;28;1381;-71
2021/05/16 00:15:17;;;;;;;;;;;19.40;64.40;;;;;;5050450;28;1930;-71
2021/05/16 00:17:42;;;;;;;;;;;19.40;64.40;;;;;;5033808;28;1392;-71
2021/05/16 00:20:11;;;;;;;;;;;19.40;64.50;;;;;;5046880;28;1229;-71
2021/05/16 00:22:37;;;;;;;;;;;19.40;64.50;;;;;;5033810;28;1393;-71
2021/05/16 00:25:03;;;;;;;;;;;19.40;64.50;;;;;;5051515;28;1370;-71
2021/05/16 00:27:29;;;;;;;;;;;19.40;64.50;;;;;;5033451;28;1388;-71
2021/05/16 00:29:54;;;;;;;;;;;19.40;64.50;;;;;;5051371;28;1666;-71
2021/05/16 00:32:19;;;;;;;;;;;19.40;64.50;;;;;;5033682;28;1201;-71
2021/05/16 00:34:45;;;;;;;;;;;19.40;64.50;;;;;;5051204;28;1930;-71
2021/05/16 00:37:10;;;;;;;;;;;19.40;64.50;;;;;;5050830;28;1377;-71
2021/05/16 00:39:36;;;;;;;;;;;19.40;64.50;;;;;;5051198;28;1740;-71
2021/05/16 00:42:01;;;;;;;;;;;19.40;64.50;;;;;;5044627;28;1154;-71
2021/05/16 00:44:26;;;;;;;;;;;19.40;64.50;;;;;;5027735;28;1666;-71
2021/05/16 00:46:52;;;;;;;;;;;19.40;64.60;;;;;;5050554;28;1332;-71
2021/05/16 00:49:18;;;;;;;;;;;19.40;64.50;;;;;;5054022;28;946;-71
2021/05/16 00:51:43;;;;;;;;;;;19.40;64.50;;;;;;5055631;28;1648;-71
2021/05/16 00:54:09;;;;;;;;;;;19.40;64.50;;;;;;5037591;28;1902;-72
2021/05/16 00:56:34;;;;;;;;;;;19.40;64.60;;;;;;5036795;28;1163;-71
2021/05/16 00:59:00;;;;;;;;;;;19.40;64.60;;;;;;5055104;28;1192;-71
2021/05/16 01:01:26;;;;;;;;;;;19.30;64.50;;;;;;5041767;28;1166;-71
2021/05/16 01:03:52;;;;;;;;;;;19.40;64.60;;;;;;5037460;28;1675;-71
2021/05/16 01:06:17;;;;;;;;;;;19.30;64.50;;;;;;5054500;28;1377;-71
2021/05/16 01:08:45;;;;;;;;;;;19.30;64.50;;;;;;5037266;28;1732;-71
2021/05/16 01:11:10;;;;;;;;;;;19.30;64.60;;;;;;5030154;28;1167;-71
2021/05/16 01:13:36;;;;;;;;;;;19.40;64.60;;;;;;5030998;28;1910;-71
2021/05/16 01:16:02;;;;;;;;;;;19.30;64.50;;;;;;5054316;28;1032;-71
2021/05/16 01:18:30;;;;;;;;;;;19.30;64.60;;;;;;5054822;28;1248;-71
2021/05/16 01:20:55;;;;;;;;;;;19.30;64.50;;;;;;5055263;28;1463;-71
2021/05/16 01:23:26;;;;;;;;;;;19.40;64.60;;;;;;5054774;28;1734;-71
2021/05/16 01:25:51;;;;;;;;;;;19.40;64.60;;;;;;5054258;28;1776;-71
2021/05/16 01:28:17;;;;;;;;;;;19.30;64.60;;;;;;5054807;28;1390;-72
2021/05/16 01:30:44;;;;;;;;;;;19.30;65.30;;;;;;5054615;28;1589;-71
2021/05/16 01:33:09;;;;;;;;;;;19.30;64.60;;;;;;5026475;28;1303;-72
2021/05/16 01:35:35;;;;;;;;;;;19.30;64.60;;;;;;5044044;28;1969;-71
2021/05/16 01:38:00;;;;;;;;;;;19.30;64.60;;;;;;5028570;28;1282;-71
2021/05/16 01:40:26;;;;;;;;;;;19.30;65.40;;;;;;5047775;28;1143;-71
2021/05/16 01:42:53;;;;;;;;;;;19.30;64.60;;;;;;5027327;28;1176;-71
2021/05/16 01:45:19;;;;;;;;;;;19.30;64.60;;;;;;5028403;28;1539;-70
2021/05/16 01:47:45;;;;;;;;;;;19.30;64.60;;;;;;5045617;28;1386;-70
2021/05/16 01:50:14;;;;;;;;;;;19.30;64.60;;;;;;5053791;28;1156;-70
2021/05/16 01:52:40;;;;;;;;;;;19.30;64.60;;;;;;5054131;28;1631;-71
2021/05/16 01:55:06;;;;;;;;;;;19.30;64.60;;;;;;5054380;28;1898;-70
2021/05/16 01:57:31;;;;;;;;;;;19.30;64.60;;;;;;5035447;28;1649;-70
2021/05/16 01:59:57;;;;;;;;;;;19.30;64.60;;;;;;5035311;28;1655;-70
2021/05/16 02:02:22;;;;;;;;;;;19.30;64.60;;;;;;5053875;28;1334;-71
2021/05/16 02:04:48;;;;;;;;;;;19.30;64.70;;;;;;5036325;28;811;-70
2021/05/16 02:07:13;;;;;;;;;;;19.30;64.70;;;;;;5034874;28;1708;-70
2021/05/16 02:09:42;;;;;;;;;;;19.30;64.70;;;;;;5054405;28;1338;-70
2021/05/16 02:12:08;;;;;;;;;;;19.30;64.60;;;;;;5036545;28;1592;-69
2021/05/16 02:14:33;;;;;;;;;;;19.30;65.40;;;;;;5036066;28;1906;-70
2021/05/16 02:16:59;;;;;;;;;;;19.30;64.70;;;;;;5053114;28;1289;-71
2021/05/16 02:19:25;;;;;;;;;;;19.30;64.70;;;;;;5035844;28;1438;-70
2021/05/16 02:21:50;;;;;;;;;;;19.30;64.70;;;;;;5048457;28;1454;-70
2021/05/16 02:24:16;;;;;;;;;;;19.30;64.70;;;;;;5053944;28;1629;-70
2021/05/16 02:26:41;;;;;;;;;;;19.30;64.80;;;;;;5036056;28;1369;-70
2021/05/16 02:29:07;;;;;;;;;;;19.30;64.70;;;;;;5053336;28;1577;-70
2021/05/16 02:31:32;;;;;;;;;;;19.30;64.70;;;;;;5053508;28;1352;-70
2021/05/16 02:33:58;;;;;;;;;;;19.30;64.70;;;;;;5053800;28;1942;-70
2021/05/16 02:36:23;;;;;;;;;;;19.30;64.80;;;;;;5034958;28;1064;-70
2021/05/16 02:38:49;;;;;;;;;;;19.30;64.80;;;;;;5053278;28;1488;-70
2021/05/16 02:41:14;;;;;;;;;;;19.30;64.70;;;;;;5053359;28;1132;-70
2021/05/16 02:43:40;;;;;;;;;;;19.30;64.80;;;;;;5053252;28;1677;-70
2021/05/16 02:46:05;;;;;;;;;;;19.30;64.80;;;;;;5052487;28;1147;-71
2021/05/16 02:48:31;;;;;;;;;;;19.30;64.70;;;;;;5052823;28;1576;-71
2021/05/16 02:50:56;;;;;;;;;;;19.30;64.70;;;;;;5053737;28;1470;-71
2021/05/16 02:53:23;;;;;;;;;;;19.30;64.80;;;;;;5053565;28;1951;-71
2021/05/16 02:55:48;;;;;;;;;;;19.30;64.70;;;;;;5034624;28;1640;-71
2021/05/16 02:58:14;;;;;;;;;;;19.30;64.80;;;;;;5053171;28;1385;-71
2021/05/16 03:00:39;;;;;;;;;;;19.30;64.80;;;;;;5035153;28;1316;-71
2021/05/16 03:03:04;;;;;;;;;;;19.30;65.10;;;;;;5031080;28;1598;-71
2021/05/16 03:05:30;;;;;;;;;;;19.30;64.80;;;;;;5045284;28;1049;-71
2021/05/16 03:07:56;;;;;;;;;;;19.30;64.80;;;;;;5052452;28;1343;-70
2021/05/16 03:10:21;;;;;;;;;;;19.30;64.80;;;;;;5035334;28;1677;-71
2021/05/16 03:12:47;;;;;;;;;;;19.30;64.80;;;;;;5052962;28;1483;-70
2021/05/16 03:15:12;;;;;;;;;;;19.30;64.80;;;;;;5051986;28;1906;-72
2021/05/16 03:17:38;;;;;;;;;;;19.30;64.80;;;;;;5015078;28;1458;-72
2021/05/16 03:20:03;;;;;;;;;;;19.30;64.80;;;;;;5027936;28;891;-72
2021/05/16 03:22:29;;;;;;;;;;;19.30;64.80;;;;;;5053075;28;1221;-72
2021/05/16 03:24:54;;;;;;;;;;;19.30;64.80;;;;;;5052943;28;1587;-72
2021/05/16 03:27:20;;;;;;;;;;;19.30;64.80;;;;;;5034660;28;1547;-72
2021/05/16 03:29:45;;;;;;;;;;;19.30;64.80;;;;;;5034802;28;1390;-72
2021/05/16 03:32:11;;;;;;;;;;;19.30;64.80;;;;;;5034637;28;1621;-72
2021/05/16 03:34:36;;;;;;;;;;;19.30;64.80;;;;;;5052177;28;1914;-72
2021/05/16 03:37:02;;;;;;;;;;;19.30;64.80;;;;;;5034139;28;1401;-72
2021/05/16 03:39:27;;;;;;;;;;;19.30;64.80;;;;;;5052670;28;1592;-72
2021/05/16 03:41:55;;;;;;;;;;;19.30;64.80;;;;;;5034751;28;1651;-72
2021/05/16 03:44:22;;;;;;;;;;;19.30;64.80;;;;;;5039407;28;956;-72
2021/05/16 03:46:47;;;;;;;;;;;19.30;64.70;;;;;;5051389;28;1553;-72
2021/05/16 03:49:12;;;;;;;;;;;19.30;64.70;;;;;;5039257;28;1372;-72
2021/05/16 03:51:38;;;;;;;;;;;19.30;64.70;;;;;;5051421;28;898;-72
2021/05/16 03:54:03;;;;;;;;;;;19.30;64.60;;;;;;5039706;28;1902;-71
2021/05/16 03:56:29;;;;;;;;;;;19.30;64.60;;;;;;5045150;28;1392;-71
2021/05/16 03:58:54;;;;;;;;;;;19.30;64.60;;;;;;5044068;28;1575;-71
2021/05/16 04:01:20;;;;;;;;;;;19.30;64.50;;;;;;5052078;28;1574;-71
2021/05/16 04:03:46;;;;;;;;;;;19.30;64.50;;;;;;5051660;28;943;-71
2021/05/16 04:06:11;;;;;;;;;;;19.40;64.50;;;;;;5050729;28;1341;-67
2021/05/16 04:08:36;;;;;;;;;;;19.40;64.50;;;;;;5045800;28;2947;-70
2021/05/16 04:11:02;;;;;;;;;;;19.40;64.50;;;;;;5049177;28;1655;-70
2021/05/16 04:13:27;;;;;;;;;;;19.40;64.40;;;;;;5047333;28;1914;-70
2021/05/16 04:15:53;;;;;;;;;;;19.40;64.40;;;;;;5034333;28;1646;-69
2021/05/16 04:18:18;;;;;;;;;;;19.40;64.40;;;;;;5033952;28;1738;-70
2021/05/16 04:20:44;;;;;;;;;;;19.40;64.40;;;;;;5047409;28;1717;-70
2021/05/16 04:23:09;;;;;;;;;;;19.40;64.30;;;;;;5051169;28;1343;-70
2021/05/16 04:25:34;;;;;;;;;;;19.40;64.30;;;;;;5051836;28;1652;-70
2021/05/16 04:28:00;;;;;;;;;;;19.40;64.30;;;;;;5052418;28;1400;-71
2021/05/16 04:30:25;;;;;;;;;;;19.40;64.30;;;;;;5028035;28;1765;-71
2021/05/16 04:32:51;;;;;;;;;;;19.40;64.30;;;;;;5047420;28;1593;-71
2021/05/16 04:35:17;;;;;;;;;;;19.40;64.30;;;;;;5038826;28;1906;-71
2021/05/16 04:37:42;;;;;;;;;;;19.40;64.30;;;;;;5026958;28;1275;-71
2021/05/16 04:40:08;;;;;;;;;;;19.40;64.30;;;;;;5052393;28;1550;-71
2021/05/16 04:42:33;;;;;;;;;;;19.40;64.30;;;;;;5048834;28;1658;-71
2021/05/16 04:44:59;;;;;;;;;;;19.40;64.30;;;;;;5051781;28;1538;-70
2021/05/16 04:47:24;;;;;;;;;;;19.40;64.30;;;;;;5033615;28;1639;-70
2021/05/16 04:49:50;;;;;;;;;;;19.40;64.30;;;;;;5052002;28;1401;-70
2021/05/16 04:52:15;;;;;;;;;;;19.40;64.20;;;;;;5047394;28;1507;-70
2021/05/16 04:54:41;;;;;;;;;;;19.40;64.20;;;;;;5038940;28;1898;-71
2021/05/16 04:57:06;;;;;;;;;;;19.40;64.20;;;;;;5034442;28;1374;-71
2021/05/16 04:59:31;;;;;;;;;;;19.40;64.20;;;;;;5051899;28;1465;-71
2021/05/16 05:01:57;;;;;;;;;;;19.40;64.20;;;;;;5051998;28;871;-71
2021/05/16 05:04:22;;;;;;;;;;;19.40;64.20;;;;;;5051453;28;1457;-71
2021/05/16 05:06:48;;;;;;;;;;;19.40;64.20;;;;;;5051308;28;1264;-71
2021/05/16 05:09:13;;;;;;;;;;;19.50;64.30;;;;;;5048003;28;1250;-71
2021/05/16 05:11:39;;;;;;;;;;;19.50;64.30;;;;;;5042821;28;983;-71
2021/05/16 05:14:04;;;;;;;;;;;19.40;64.20;;;;;;5052501;28;1911;-71
2021/05/16 05:16:29;;;;;;;;;;;19.50;64.20;;;;;;5051457;28;1076;-71
2021/05/16 05:18:55;;;;;;;;;;;19.40;64.20;;;;;;5051537;28;1213;-71
2021/05/16 05:21:20;;;;;;;;;;;19.50;64.20;;;;;;5047504;28;1414;-71
2021/05/16 05:23:46;;;;;;;;;;;19.50;64.20;;;;;;5052136;28;1460;-71
2021/05/16 05:26:11;;;;;;;;;;;19.50;64.20;;;;;;5050911;28;1651;-69
2021/05/16 05:28:37;;;;;;;;;;;19.50;64.20;;;;;;5051967;28;1363;-70
2021/05/16 05:31:03;;;;;;;;;;;19.50;64.20;;;;;;5052106;28;946;-71
2021/05/16 05:33:29;;;;;;;;;;;19.50;64.20;;;;;;5033332;28;1929;-71
2021/05/16 05:35:54;;;;;;;;;;;19.50;64.20;;;;;;5052747;28;1637;-71
2021/05/16 05:38:20;;;;;;;;;;;19.50;64.20;;;;;;5055434;28;1568;-70
2021/05/16 05:40:45;;;;;;;;;;;19.50;64.20;;;;;;5038095;28;1379;-70
2021/05/16 05:43:10;;;;;;;;;;;19.50;64.20;;;;;;5055514;28;1375;-70
2021/05/16 05:45:37;;;;;;;;;;;19.50;64.20;;;;;;5054817;28;1566;-70
2021/05/16 05:48:03;;;;;;;;;;;19.50;64.20;;;;;;5054860;28;1704;-70
2021/05/16 05:50:28;;;;;;;;;;;19.50;64.20;;;;;;5055781;28;1379;-69
2021/05/16 05:52:54;;;;;;;;;;;19.50;64.20;;;;;;5055238;28;1666;-71
2021/05/16 05:55:19;;;;;;;;;;;19.50;64.20;;;;;;5037628;28;1973;-69
2021/05/16 05:57:44;;;;;;;;;;;19.40;64.10;;;;;;5055351;28;1377;-70
2021/05/16 06:00:10;;;;;;;;;;;19.50;64.20;;;;;;5055428;28;1166;-69
2021/05/16 06:02:36;;;;;;;;;;;19.50;64.20;;;;;;5054842;28;1370;-70
2021/05/16 06:05:01;;;;;;;;;;;19.50;64.20;;;;;;5037411;28;1643;-69
2021/05/16 06:07:26;;;;;;;;;;;19.50;64.20;;;;;;5066003;22;2218;-65
2021/05/16 06:09:52;;;;;;;;;;;19.50;64.20;;;;;;5024741;28;2180;-63
2021/05/16 06:12:17;;;;;;;;;;;19.50;64.20;;;;;;5030651;28;1658;-62
2021/05/16 06:14:43;;;;;;;;;;;19.50;64.20;;;;;;5034843;28;1964;-63
2021/05/16 06:17:08;;;;;;;;;;;19.50;64.20;;;;;;5031069;28;1435;-62
2021/05/16 06:19:34;;;;;;;;;;;19.50;64.20;;;;;;5034788;28;1442;-63
2021/05/16 06:21:59;;;;;;;;;;;19.50;64.20;;;;;;5034939;28;1408;-63
2021/05/16 06:24:25;;;;;;;;;;;19.40;64.10;;;;;;5034624;28;1487;-63
2021/05/16 06:26:50;;;;;;;;;;;19.50;64.20;;;;;;5033762;28;1610;-63
2021/05/16 06:29:16;;;;;;;;;;;19.50;64.20;;;;;;5016226;28;1437;-63
2021/05/16 06:31:42;;;;;;;;;;;19.50;64.90;;;;;;5034015;28;1231;-63
2021/05/16 06:34:08;;;;;;;;;;;19.50;64.20;;;;;;5034486;28;1975;-62
2021/05/16 06:36:33;;;;;;;;;;;19.50;64.10;;;;;;5015730;28;1643;-62
2021/05/16 06:38:59;;;;;;;;;;;19.50;64.20;;;;;;5014194;28;1295;-62
2021/05/16 06:41:24;;;;;;;;;;;19.50;64.20;;;;;;5032399;28;1575;-64
2021/05/16 06:43:50;;;;;;;;;;;19.50;64.20;;;;;;5032208;28;1450;-66
2021/05/16 06:46:16;;;;;;;;;;;19.50;64.20;;;;;;5030656;28;1613;-65
2021/05/16 06:48:41;;;;;;;;;;;19.50;64.20;;;;;;5033160;28;1389;-65
2021/05/16 06:51:07;;;;;;;;;;;19.50;64.20;;;;;;5033218;28;1641;-65
2021/05/16 06:53:32;;;;;;;;;;;19.50;64.20;;;;;;5032992;28;2020;-64
2021/05/16 06:55:57;;;;;;;;;;;19.50;64.20;;;;;;5031999;28;1685;-64
2021/05/16 06:58:23;;;;;;;;;;;19.50;64.20;;;;;;5034013;28;1673;-64
2021/05/16 07:00:49;;;;;;;;;;;19.50;64.20;;;;;;5016139;28;1735;-67
2021/05/16 07:03:14;;;;;;;;;;;19.50;64.20;;;;;;5016583;28;1386;-64
2021/05/16 07:05:40;;;;;;;;;;;19.50;64.10;;;;;;5015549;28;1605;-64
2021/05/16 07:08:05;;;;;;;;;;;19.50;64.10;;;;;;5015791;28;1746;-64
2021/05/16 07:10:31;;;;;;;;;;;19.50;64.20;;;;;;5015974;28;1629;-64
2021/05/16 07:12:58;;;;;;;;;;;19.50;64.20;;;;;;5034019;28;1167;-64
2021/05/16 07:15:23;;;;;;;;;;;19.50;64.20;;;;;;5032916;28;1910;-64
2021/05/16 07:17:49;;;;;;;;;;;19.50;64.20;;;;;;5033374;28;1310;-64
2021/05/16 07:20:14;;;;;;;;;;;19.50;64.10;;;;;;5033906;28;1650;-64
2021/05/16 07:22:40;;;;;;;;;;;19.50;64.10;;;;;;5015629;28;1695;-64
2021/05/16 07:25:05;;;;;;;;;;;19.50;64.20;;;;;;5033107;28;1393;-65
2021/05/16 07:27:31;;;;;;;;;;;19.50;64.10;;;;;;5033277;28;1649;-64
2021/05/16 07:29:56;;;;;;;;;;;19.50;64.20;;;;;;4999107;28;1639;-63
2021/05/16 07:32:22;;;;;;;;;;;19.50;64.10;;;;;;5033224;28;1362;-65
2021/05/16 07:34:47;;;;;;;;;;;19.50;64.10;;;;;;5033158;28;1936;-64
2021/05/16 07:37:12;;;;;;;;;;;19.50;64.10;;;;;;5032661;28;1340;-64
2021/05/16 07:39:38;;;;;;;;;;;19.50;64.10;;;;;;5033370;28;1615;-65
2021/05/16 07:42:03;;;;;;;;;;;19.50;64.10;;;;;;5033637;28;1381;-65
2021/05/16 07:44:29;;;;;;;;;;;19.50;64.10;;;;;;5032913;28;1624;-64
2021/05/16 07:46:54;;;;;;;;;;;19.50;64.10;;;;;;5031995;28;1452;-65
2021/05/16 07:49:21;;;;;;;;;;;19.50;64.10;;;;;;5033209;28;1643;-64
2021/05/16 07:51:46;;;;;;;;;;;19.50;64.10;;;;;;5032978;28;1520;-65
2021/05/16 07:54:12;;;;;;;;;;;19.50;64.10;;;;;;5015394;28;1914;-64
2021/05/16 07:56:37;;;;;;;;;;;19.50;64.10;;;;;;5032279;28;1717;-65
2021/05/16 07:59:03;;;;;;;;;;;19.50;64.10;;;;;;5032214;28;1694;-65
2021/05/16 08:01:28;;;;;;;;;;;19.50;64.10;;;;;;5033220;28;1465;-64
2021/05/16 08:03:53;;;;;;;;;;;19.50;64.10;;;;;;5033200;28;1385;-64
2021/05/16 08:06:19;;;;;;;;;;;19.50;64.10;;;;;;5031952;28;1429;-64
2021/05/16 08:08:44;;;;;;;;;;;19.50;64.10;;;;;;5014991;28;1734;-63
2021/05/16 08:11:10;;;;;;;;;;;19.50;64.20;;;;;;5032753;28;1172;-63
2021/05/16 08:13:35;;;;;;;;;;;19.50;64.20;;;;;;5032836;28;1910;-66
2021/05/16 08:16:01;;;;;;;;;;;19.50;64.10;;;;;;5017895;28;1382;-63
2021/05/16 08:18:26;;;;;;;;;;;19.50;64.10;;;;;;5031545;28;1481;-63
2021/05/16 08:20:52;;;;;;;;;;;19.50;64.10;;;;;;5027657;28;1774;-64
2021/05/16 08:23:17;;;;;;;;;;;19.50;64.10;;;;;;5032909;28;1432;-63
2021/05/16 08:25:42;;;;;;;;;;;19.50;64.10;;;;;;5013896;28;1513;-63
2021/05/16 08:28:09;;;;;;;;;;;19.50;64.10;;;;;;5032549;28;1339;-65
2021/05/16 08:30:34;;;;;;;;;;;19.50;64.10;;;;;;5032197;28;1185;-65
2021/05/16 08:33:00;;;;;;;;;;;19.50;64.10;;;;;;5032701;28;1182;-65
2021/05/16 08:35:25;;;;;;;;;;;19.50;64.10;;;;;;5031725;28;1902;-65
2021/05/16 08:37:51;;;;;;;;;;;19.50;64.10;;;;;;5032665;28;1668;-65
2021/05/16 08:40:17;;;;;;;;;;;19.50;64.10;;;;;;5015121;28;1674;-64
2021/05/16 08:42:43;;;;;;;;;;;19.50;64.10;;;;;;5032967;28;1351;-65
2021/05/16 08:45:13;;;;;;;;;;;19.50;64.10;;;;;;5014229;28;1203;-66
2021/05/16 08:47:39;;;;;;;;;;;19.50;64.10;;;;;;5015296;28;1377;-64
2021/05/16 08:50:05;;;;;;;;;;;19.50;64.20;;;;;;5014160;28;1648;-64
2021/05/16 08:52:30;;;;;;;;;;;19.50;64.10;;;;;;5032573;28;1631;-65
2021/05/16 08:54:56;;;;;;;;;;;19.50;64.10;;;;;;5031965;28;1898;-65
2021/05/16 08:57:22;;;;;;;;;;;19.50;64.10;;;;;;5030017;28;1256;-65
2021/05/16 09:00:06;;;;;;;;;;;19.50;64.10;;;;;;5022012;28;1437;-64
2021/05/16 09:02:34;;;;;;;;;;;19.50;64.10;;;;;;5023780;28;1252;-64
2021/05/16 09:05:02;;;;;;;;;;;19.50;64.10;;;;;;5024506;28;1215;-67
2021/05/16 09:07:31;;;;;;;;;;;19.50;64.10;;;;;;5005386;28;1527;-65
2021/05/16 09:09:56;;;;;;;;;;;19.50;64.10;;;;;;5007477;28;1224;-65
2021/05/16 09:12:22;;;;;;;;;;;19.50;64.10;;;;;;5033270;28;1255;-64
2021/05/16 09:14:57;;;;;;;;;;;19.50;64.10;;;;;;5024305;28;1902;-65
2021/05/16 09:17:26;;;;;;;;;;;19.50;64.10;;;;;;5017513;28;1263;-64
2021/05/16 09:19:53;;;;;;;;;;;19.50;64.10;;;;;;5018224;28;1333;-64
2021/05/16 09:22:35;;;;;;;;;;;19.50;64.10;;;;;;5034243;28;1699;-63
2021/05/16 09:25:19;;;;;;;;;;;19.50;64.10;;;;;;5035792;28;1590;-64
2021/05/16 09:27:46;;;;;;;;;;;19.50;64.10;;;;;;5035906;28;1421;-64
2021/05/16 09:30:14;;;;;;;;;;;19.50;64.10;;;;;;5034350;28;1711;-64
2021/05/16 09:32:46;;;;;;;;;;;19.50;64.10;;;;;;5036106;28;1668;-64
2021/05/16 09:35:11;;;;;;;;;;;19.50;64.10;;;;;;5035021;28;1906;-64
2021/05/16 09:37:38;;;;;;;;;;;19.50;64.10;;;;;;5035542;28;1642;-64
2021/05/16 09:40:07;;;;;;;;;;;19.50;64.10;;;;;;5017569;28;1625;-63
2021/05/16 09:42:32;;;;;;;;;;;19.50;64.10;;;;;;5035614;28;1676;-63
2021/05/16 09:44:57;;;;;;;;;;;19.50;64.10;;;;;;5035729;28;1576;-63
2021/05/16 09:47:27;;;;;;;;;;;19.50;64.10;;;;;;5034638;28;1367;-64
2021/05/16 09:49:56;;;;;;;;;;;19.50;64.10;;;;;;5035448;28;1643;-64
2021/05/16 09:52:36;;;;;;;;;;;19.50;64.10;;;;;;5035275;28;1643;-64
2021/05/16 09:55:05;;;;;;;;;;;19.50;64.10;;;;;;5035273;28;1964;-64
2021/05/16 09:57:31;;;;;;;;;;;19.50;64.10;;;;;;5033775;28;1476;-63
2021/05/16 09:59:57;;;;;;;;;;;19.50;64.10;;;;;;5035005;28;1373;-64
2021/05/16 10:02:25;;;;;;;;;;;19.50;64.10;;;;;;5034098;28;1586;-64
2021/05/16 10:04:52;;;;;;;;;;;19.50;64.10;;;;;;5035282;28;1569;-64
2021/05/16 10:07:17;;;;;;;;;;;19.50;64.10;;;;;;5034547;28;1660;-63
2021/05/16 10:09:43;;;;;;;;;;;19.50;64.10;;;;;;5034918;28;1667;-64
2021/05/16 10:12:08;;;;;;;;;;;19.50;64.10;;;;;;5035157;28;1179;-64
2021/05/16 10:14:39;;;;;;;;;;;19.50;64.10;;;;;;5034719;28;1906;-63
2021/05/16 10:17:05;;;;;;;;;;;19.50;64.10;;;;;;5035205;28;1674;-64
2021/05/16 10:19:40;;;;;;;;;;;19.50;64.10;;;;;;5033031;28;1609;-64
2021/05/16 10:22:09;;;;;;;;;;;19.50;64.10;;;;;;5016716;28;1299;-64
2021/05/16 10:24:38;;;;;;;;;;;19.50;64.10;;;;;;5035103;28;1360;-63
2021/05/16 10:27:16;;;;;;;;;;;19.50;64.10;;;;;;5016607;28;1651;-64
2021/05/16 10:29:48;;;;;;;;;;;19.50;64.80;;;;;;5034406;28;1076;-63
2021/05/16 10:32:19;;;;;;;;;;;19.50;64.10;;;;;;5012089;28;1912;-63
2021/05/16 10:34:44;;;;;;;;;;;19.50;64.10;;;;;;5005934;28;1906;-65
2021/05/16 10:37:10;;;;;;;;;;;19.50;64.10;;;;;;5029781;28;1271;-65
2021/05/16 10:39:38;;;;;;;;;;;19.50;64.10;;;;;;5023517;28;1633;-64
2021/05/16 10:42:20;;;;;;;;;;;19.50;64.00;;;;;;5031037;28;1601;-64
2021/05/16 10:44:55;;;;;;;;;;;19.50;64.00;;;;;;5019539;28;1460;-64
2021/05/16 10:47:39;;;;;;;;;;;19.50;64.00;;;;;;5033868;28;1333;-64
2021/05/16 10:50:05;;;;;;;;;;;19.50;64.10;;;;;;5034266;28;1700;-64
2021/05/16 10:52:30;;;;;;;;;;;19.50;64.00;;;;;;5033540;28;1653;-63
2021/05/16 10:54:56;;;;;;;;;;;19.50;64.10;;;;;;5034167;28;1894;-63
2021/05/16 10:57:24;;;;;;;;;;;19.50;64.00;;;;;;5033707;28;1473;-63
2021/05/16 10:59:49;;;;;;;;;;;19.50;64.00;;;;;;5034332;28;1654;-64
2021/05/16 11:02:34;;;;;;;;;;;19.50;64.00;;;;;;5016972;28;1133;-64
2021/05/16 11:04:59;;;;;;;;;;;19.50;64.10;;;;;;5033966;28;1553;-65
2021/05/16 11:07:31;;;;;;;;;;;19.50;64.00;;;;;;5033666;28;1375;-64
2021/05/16 11:10:16;;;;;;;;;;;19.50;64.10;;;;;;5034116;28;1377;-64
2021/05/16 11:12:41;;;;;;;;;;;19.50;64.10;;;;;;5034421;28;1615;-64
2021/05/16 11:15:07;;;;;;;;;;;19.50;64.10;;;;;;5015476;28;1910;-64
2021/05/16 11:17:32;;;;;;;;;;;19.50;64.10;;;;;;5033205;28;1343;-64
2021/05/16 11:19:58;;;;;;;;;;;19.50;64.00;;;;;;5029394;28;1434;-64
2021/05/16 11:22:23;;;;;;;;;;;19.60;64.10;;;;;;5032758;28;1665;-64
2021/05/16 11:24:49;;;;;;;;;;;19.50;64.00;;;;;;5033621;28;1595;-64
2021/05/16 11:27:18;;;;;;;;;;;19.50;64.00;;;;;;5033235;28;1394;-64
2021/05/16 11:29:43;;;;;;;;;;;19.50;64.00;;;;;;5016530;28;1642;-64
2021/05/16 11:32:09;;;;;;;;;;;19.50;64.00;;;;;;5033531;28;1427;-64
2021/05/16 11:34:34;;;;;;;;;;;19.50;64.10;;;;;;5015676;28;1988;-63
2021/05/16 11:37:16;;;;;;;;;;;19.50;64.00;;;;;;5032844;28;1595;-63
2021/05/16 11:39:41;;;;;;;;;;;19.50;64.10;;;;;;5015733;28;1164;-63
2021/05/16 11:42:06;;;;;;;;;;;19.50;64.10;;;;;;5033302;28;1494;-64
2021/05/16 11:44:32;;;;;;;;;;;19.50;64.00;;;;;;5015722;28;1688;-64
2021/05/16 11:46:57;;;;;;;;;;;19.50;64.00;;;;;;5032777;28;1213;-64
2021/05/16 11:49:24;;;;;;;;;;;19.60;64.10;;;;;;5032851;28;1513;-65
2021/05/16 11:51:49;;;;;;;;;;;19.50;64.10;;;;;;5014910;28;1270;-64
2021/05/16 11:54:14;;;;;;;;;;;19.50;64.00;;;;;;5032601;28;1894;-63
2021/05/16 11:56:42;;;;;;;;;;;19.60;64.10;;;;;;5031455;28;1650;-63
2021/05/16 11:59:08;;;;;;;;;;;19.50;64.00;;;;;;5032463;28;1442;-63
2021/05/16 12:01:40;;;;;;;;;;;19.50;64.00;;;;;;5008309;28;1395;-63
2021/05/16 12:04:08;;;;;;;;;;;19.50;64.10;;;;;;5021526;28;2495;-61
2021/05/16 12:06:44;;;;;;;;;;;19.50;64.10;;;;;;5002929;28;1478;-61
2021/05/16 12:09:10;;;;;;;;;;;19.50;64.10;;;;;;5037246;22;3746;-67
2021/05/16 12:11:36;;;;;;;;;;;19.50;64.10;;;;;;5011363;28;2204;-68
2021/05/16 12:14:05;;;;;;;;;;;19.50;64.10;;;;;;5030256;28;1965;-68
2021/05/16 12:16:30;;;;;;;;;;;19.50;64.20;;;;;;5029346;28;1283;-70
2021/05/16 12:18:58;;;;;;;;;;;19.50;64.20;;;;;;5024308;28;1713;-69
2021/05/16 12:21:23;;;;;;;;;;;19.50;64.20;;;;;;5034113;28;1084;-71
2021/05/16 12:23:50;;;;;;;;;;;19.50;64.10;;;;;;5050158;28;1087;-71
2021/05/16 12:26:15;;;;;;;;;;;19.50;64.20;;;;;;5049321;28;1198;-70
2021/05/16 12:28:40;;;;;;;;;;;19.50;64.20;;;;;;5050198;28;1383;-72
2021/05/16 12:31:06;;;;;;;;;;;19.50;64.20;;;;;;5050193;28;1059;-72
2021/05/16 12:33:32;;;;;;;;;;;19.50;64.20;;;;;;5049376;28;1281;-72
2021/05/16 12:35:57;;;;;;;;;;;19.50;64.20;;;;;;5050546;28;1977;-72
2021/05/16 12:38:23;;;;;;;;;;;19.50;64.20;;;;;;5047492;28;1284;-71
2021/05/16 12:40:48;;;;;;;;;;;19.50;64.20;;;;;;5042999;28;1247;-72
2021/05/16 12:43:18;;;;;;;;;;;19.50;64.20;;;;;;5045365;28;1211;-72
2021/05/16 12:45:44;;;;;;;;;;;19.50;64.20;;;;;;5022172;28;1180;-73
2021/05/16 12:48:11;;;;;;;;;;;19.50;64.20;;;;;;5024138;28;1309;-71
2021/05/16 12:50:36;;;;;;;;;;;19.50;64.20;;;;;;5047113;28;1156;-72
2021/05/16 12:53:19;;;;;;;;;;;19.50;64.30;;;;;;5046221;28;1232;-71
2021/05/16 12:55:45;;;;;;;;;;;19.50;64.30;;;;;;5043450;28;2790;-72
2021/05/16 12:58:14;;;;;;;;;;;19.50;64.30;;;;;;5050074;28;1282;-73
2021/05/16 13:00:41;;;;;;;;;;;19.50;64.30;;;;;;5032744;28;1143;-69
2021/05/16 13:03:07;;;;;;;;;;;19.50;64.30;;;;;;5050723;28;1067;-71
2021/05/16 13:05:43;;;;;;;;;;;19.50;64.30;;;;;;5048943;28;1088;-75
2021/05/16 13:08:09;;;;;;;;;;;19.50;64.20;;;;;;5050693;28;1226;-67
2021/05/16 13:10:42;;;;;;;;;;;19.50;64.20;;;;;;5050278;28;1091;-69
2021/05/16 13:13:08;;;;;;;;;;;19.50;64.20;;;;;;5051821;28;1024;-70
2021/05/16 13:15:37;;;;;;;;;;;19.50;64.20;;;;;;5047583;28;1910;-74
2021/05/16 13:18:22;;;;;;;;;;;19.50;64.20;;;;;;5049795;28;1310;-69
2021/05/16 13:20:47;;;;;;;;;;;19.50;64.10;;;;;;5051351;28;1119;-70
2021/05/16 13:23:23;;;;;;;;;;;19.50;64.10;;;;;;5050183;28;992;-70
2021/05/16 13:25:48;;;;;;;;;;;19.50;64.10;;;;;;5041797;28;2556;-70
2021/05/16 13:28:17;;;;;;;;;;;19.50;64.10;;;;;;5048001;28;1295;-70
2021/05/16 13:30:46;;;;;;;;;;;19.50;64.10;;;;;;5049758;28;1052;-70
2021/05/16 13:33:11;;;;;;;;;;;19.50;64.00;;;;;;5049346;28;1251;-69
2021/05/16 13:35:37;;;;;;;;;;;19.60;64.10;;;;;;5049687;28;1906;-70
2021/05/16 13:38:02;;;;;;;;;;;19.60;64.00;;;;;;5047812;28;1523;-70
2021/05/16 13:40:28;;;;;;;;;;;19.60;64.10;;;;;;5049977;28;1071;-71
2021/05/16 13:42:55;;;;;;;;;;;19.60;64.00;;;;;;5031859;28;1179;-71
2021/05/16 13:45:20;;;;;;;;;;;19.60;64.00;;;;;;5049613;28;929;-71
2021/05/16 13:47:46;;;;;;;;;;;19.60;64.00;;;;;;5050642;28;1249;-72
2021/05/16 13:50:11;;;;;;;;;;;19.60;64.00;;;;;;5049238;28;1071;-69
2021/05/16 13:52:37;;;;;;;;;;;19.60;64.00;;;;;;5050343;28;1087;-70
2021/05/16 13:55:03;;;;;;;;;;;19.60;64.00;;;;;;5049722;28;1890;-71
2021/05/16 13:57:28;;;;;;;;;;;19.60;64.00;;;;;;5052899;28;1092;-70
2021/05/16 13:59:54;;;;;;;;;;;19.60;64.00;;;;;;5055636;28;1205;-70
2021/05/16 14:02:19;;;;;;;;;;;19.60;64.00;;;;;;5055160;28;1062;-72
2021/05/16 14:04:45;;;;;;;;;;;19.60;64.00;;;;;;5050298;28;1155;-73
2021/05/16 14:07:10;;;;;;;;;;;19.60;64.00;;;;;;5051826;28;1040;-71
2021/05/16 14:09:36;;;;;;;;;;;19.50;63.90;;;;;;5050754;28;1205;-69
2021/05/16 14:12:02;;;;;;;;;;;19.60;64.00;;;;;;5053059;28;1111;-70
2021/05/16 14:14:28;;;;;;;;;;;19.60;64.00;;;;;;5052514;28;1913;-67
2021/05/16 14:16:53;;;;;;;;;;;19.60;63.90;;;;;;5049530;28;1044;-67
2021/05/16 14:19:18;;;;;;;;;;;19.60;64.00;;;;;;5053288;28;1201;-68
2021/05/16 14:21:44;;;;;;;;;;;19.60;64.00;;;;;;5036067;28;1116;-68
2021/05/16 14:24:09;;;;;;;;;;;19.60;64.00;;;;;;5053254;28;1107;-68
2021/05/16 14:26:35;;;;;;;;;;;19.60;64.00;;;;;;5053214;28;1072;-67